createdAt,value
2019-03-04T00:01:12.536Z,99270.21
2019-03-04T00:03:45.388Z,99262.88
2019-03-04T00:06:17.035Z,99260.81
2019-03-04T00:08:48.697Z,99260.08
2019-03-04T00:11:20.472Z,99247.97
2019-03-04T00:13:52.540Z,99234.37
2019-03-04T00:16:25.743Z,99230.27
2019-03-04T00:18:58.090Z,99232.13
2019-03-04T00:21:31.107Z,99231.72
2019-03-04T00:24:04.309Z,99224.31
2019-03-04T00:26:36.024Z,99222.61
2019-03-04T00:29:08.065Z,99223.63
2019-03-04T00:31:39.743Z,99219.39
2019-03-04T00:34:12.294Z,99211.69
2019-03-04T00:36:43.976Z,99195.36
2019-03-04T00:39:15.674Z,99194.34
2019-03-04T00:41:48.607Z,99181.08
2019-03-04T00:44:20.932Z,99179.58
2019-03-04T00:46:53.580Z,99166.91
2019-03-04T00:49:27.084Z,99162.59
2019-03-04T00:51:59.154Z,99156.23
2019-03-04T00:54:32.518Z,99162.05
2019-03-04T00:57:04.908Z,99163.66
2019-03-04T00:59:37.323Z,99162.73
2019-03-04T01:02:09.172Z,99170.84
2019-03-04T01:04:40.961Z,99166.27
2019-03-04T01:07:14.377Z,99159.70
2019-03-04T01:09:46.175Z,99156.27
2019-03-04T01:12:19.367Z,99160.67
2019-03-04T01:14:53.273Z,99167.27
2019-03-04T01:17:25.551Z,99147.20
2019-03-04T01:19:58.273Z,99165.66
2019-03-04T01:22:29.922Z,99162.56
2019-03-04T01:25:03.465Z,99153.58
2019-03-04T01:27:37.498Z,99160.41
2019-03-04T01:30:23.720Z,99166.50
2019-03-04T01:32:55.977Z,99165.39
2019-03-04T01:35:27.639Z,99158.16
2019-03-04T01:37:59.860Z,99153.38
2019-03-04T01:40:32.680Z,99167.17
2019-03-04T01:43:05.721Z,99171.48
2019-03-04T01:45:39.764Z,99167.45
2019-03-04T01:48:12.690Z,99155.55
2019-03-04T01:50:45.263Z,99145.25
2019-03-04T01:53:17.801Z,99161.55
2019-03-04T01:55:50.694Z,99166.41
2019-03-04T01:58:23.356Z,99159.03
2019-03-04T02:00:57.303Z,99163.52
2019-03-04T02:03:39.660Z,99162.29
2019-03-04T02:06:11.374Z,99151.41
2019-03-04T02:08:43.141Z,99145.36
2019-03-04T02:11:15.336Z,99142.15
2019-03-04T02:13:47.059Z,99135.77
2019-03-04T02:16:18.839Z,99138.41
2019-03-04T02:18:51.799Z,99131.01
2019-03-04T02:21:24.824Z,99135.38
2019-03-04T02:23:56.986Z,99129.67
2019-03-04T02:26:31.602Z,99120.57
2019-03-04T02:29:04.839Z,99114.47
2019-03-04T02:31:38.364Z,99088.77
2019-03-04T02:34:11.358Z,99092.88
2019-03-04T02:36:44.103Z,99094.56
2019-03-04T02:39:16.699Z,99088.64
2019-03-04T02:41:49.047Z,99080.42
2019-03-04T02:44:22.255Z,99054.47
2019-03-04T02:46:54.963Z,99035.05
2019-03-04T02:49:27.716Z,99029.92
2019-03-04T02:51:59.913Z,99016.33
2019-03-04T02:54:31.680Z,99001.98
2019-03-04T02:57:03.888Z,98987.72
2019-03-04T02:59:35.783Z,98985.78
2019-03-04T03:02:09.203Z,98982.61
2019-03-04T03:04:41.643Z,98969.33
2019-03-04T03:07:14.433Z,98958.66
2019-03-04T03:09:46.089Z,98952.88
2019-03-04T03:12:17.712Z,98933.28
2019-03-04T03:14:49.653Z,98919.63
2019-03-04T03:17:21.258Z,98912.22
2019-03-04T03:19:55.388Z,98902.66
2019-03-04T03:22:27.011Z,98894.53
2019-03-04T03:24:59.073Z,98895.19
2019-03-04T03:27:30.860Z,98888.75
2019-03-04T03:30:02.562Z,98883.97
2019-03-04T03:32:34.688Z,98871.38
2019-03-04T03:35:08.755Z,98886.36
2019-03-04T03:37:41.453Z,98874.00
2019-03-04T03:40:15.356Z,98871.23
2019-03-04T03:42:48.321Z,98865.30
2019-03-04T03:45:21.021Z,98867.71
2019-03-04T03:47:53.922Z,98862.93
2019-03-04T03:50:28.741Z,98852.81
2019-03-04T03:53:00.718Z,98863.69
2019-03-04T03:55:34.104Z,98876.59
2019-03-04T03:58:06.136Z,98873.31
2019-03-04T04:00:38.135Z,98872.54
2019-03-04T04:03:09.836Z,98855.73
2019-03-04T04:05:42.460Z,98836.34
2019-03-04T04:08:15.283Z,98841.30
2019-03-04T04:10:50.179Z,98837.59
2019-03-04T04:13:21.900Z,98833.02
2019-03-04T04:15:53.817Z,98834.42
2019-03-04T04:18:28.035Z,98833.48
2019-03-04T04:21:00.057Z,98830.48
2019-03-04T04:23:31.696Z,98834.67
2019-03-04T04:26:05.647Z,98832.24
2019-03-04T04:28:38.170Z,98826.31
2019-03-04T04:31:10.925Z,98822.53
2019-03-04T04:33:43.572Z,98807.91
2019-03-04T04:36:15.401Z,98783.31
2019-03-04T04:38:47.427Z,98772.57
2019-03-04T04:41:19.270Z,98761.42
2019-03-04T04:43:51.741Z,98777.67
2019-03-04T04:46:51.680Z,98785.54
2019-03-04T04:49:25.031Z,98772.89
2019-03-04T04:51:57.651Z,98762.80
2019-03-04T04:54:29.580Z,98765.84
2019-03-04T04:57:01.212Z,98759.00
2019-03-04T04:59:33.961Z,98736.36
2019-03-04T05:02:05.841Z,98698.88
2019-03-04T05:04:39.536Z,98715.47
2019-03-04T05:07:11.178Z,98719.96
2019-03-04T05:09:43.067Z,98722.06
2019-03-04T05:12:16.378Z,98703.27
2019-03-04T05:14:49.038Z,98683.41
2019-03-04T05:17:20.823Z,98687.00
2019-03-04T05:19:54.005Z,98676.98
2019-03-04T05:22:27.231Z,98684.10
2019-03-04T05:24:59.019Z,98671.50
2019-03-04T05:27:30.899Z,98667.53
2019-03-04T05:30:03.276Z,98678.11
2019-03-04T05:32:35.302Z,98678.43
2019-03-04T05:35:07.045Z,98687.54
2019-03-04T05:37:39.535Z,98674.62
2019-03-04T05:40:14.481Z,98652.66
2019-03-04T05:42:46.616Z,98668.38
2019-03-04T05:45:20.165Z,98694.12
2019-03-04T05:47:52.400Z,98698.52
2019-03-04T05:50:24.973Z,98689.16
2019-03-04T05:52:57.133Z,98671.53
2019-03-04T05:55:29.012Z,98670.88
2019-03-04T05:58:00.683Z,98658.23
2019-03-04T06:00:38.313Z,98649.06
2019-03-04T06:03:12.223Z,98635.58
2019-03-04T06:05:43.907Z,98627.81
2019-03-04T06:08:16.064Z,98636.27
2019-03-04T06:10:48.024Z,98629.72
2019-03-04T06:13:20.300Z,98616.11
2019-03-04T06:15:53.115Z,98589.71
2019-03-04T06:18:24.815Z,98587.93
2019-03-04T06:20:56.926Z,98581.38
2019-03-04T06:23:29.188Z,98593.64
2019-03-04T06:26:01.096Z,98603.97
2019-03-04T06:28:33.151Z,98609.31
2019-03-04T06:31:05.002Z,98617.08
2019-03-04T06:33:36.628Z,98621.63
2019-03-04T06:36:08.577Z,98638.77
2019-03-04T06:38:40.667Z,98666.04
2019-03-04T06:41:12.366Z,98682.80
2019-03-04T06:43:44.257Z,98694.71
2019-03-04T06:46:18.682Z,98708.75
2019-03-04T06:48:50.875Z,98717.62
2019-03-04T06:51:43.431Z,98725.24
2019-03-04T06:55:00.754Z,98730.02
2019-03-04T06:57:43.610Z,98740.55
2019-03-04T07:00:58.156Z,98754.53
2019-03-04T07:03:34.307Z,98772.92
2019-03-04T07:06:06.187Z,98753.51
2019-03-04T07:09:12.941Z,98759.14
2019-03-04T07:11:52.254Z,98754.23
2019-03-04T07:14:24.227Z,98739.19
2019-03-04T07:16:56.012Z,98756.34
2019-03-04T07:19:34.568Z,98788.42
2019-03-04T07:22:07.827Z,98767.48
2019-03-04T07:24:39.577Z,98739.12
2019-03-04T07:27:13.072Z,98730.97
2019-03-04T07:29:44.818Z,98772.72
2019-03-04T07:32:16.989Z,98777.91
2019-03-04T07:34:49.071Z,98793.58
2019-03-04T07:37:20.706Z,98782.59
2019-03-04T07:39:53.132Z,98790.24
2019-03-04T07:42:25.024Z,98789.23
2019-03-04T07:44:57.560Z,98765.23
2019-03-04T07:47:29.594Z,98753.68
2019-03-04T07:50:02.624Z,98769.17
2019-03-04T07:52:34.592Z,98735.91
2019-03-04T07:55:07.733Z,98724.62
2019-03-04T07:57:39.774Z,98739.31
2019-03-04T08:00:12.912Z,98732.51
2019-03-04T08:02:44.832Z,98745.81
2019-03-04T08:05:18.354Z,98735.34
2019-03-04T08:07:52.646Z,98722.01
2019-03-04T08:11:11.780Z,98718.20
2019-03-04T08:13:49.855Z,98731.84
2019-03-04T08:16:21.524Z,98695.34
2019-03-04T08:18:53.645Z,98739.80
2019-03-04T08:21:25.764Z,98732.65
2019-03-04T08:23:58.890Z,98716.03
2019-03-04T08:26:30.707Z,98715.42
2019-03-04T08:29:04.330Z,98728.94
2019-03-04T08:31:38.209Z,98749.03
2019-03-04T08:34:10.180Z,98759.17
2019-03-04T08:36:42.533Z,98750.73
2019-03-04T08:39:14.839Z,98740.59
2019-03-04T08:41:47.186Z,98738.20
2019-03-04T08:44:18.903Z,98748.14
2019-03-04T08:46:50.988Z,98765.70
2019-03-04T08:49:24.228Z,98772.52
2019-03-04T08:51:57.289Z,98798.33
2019-03-04T08:54:29.799Z,98780.30
2019-03-04T08:57:04.192Z,98801.23
2019-03-04T08:59:34.963Z,98823.34
2019-03-04T09:02:09.348Z,98805.68
2019-03-04T09:04:41.063Z,98800.66
2019-03-04T09:07:13.336Z,98805.23
2019-03-04T09:09:45.672Z,98823.41
2019-03-04T09:12:18.522Z,98835.98
2019-03-04T09:14:51.341Z,98812.66
2019-03-04T09:17:23.851Z,98802.77
2019-03-04T09:19:55.916Z,98798.59
2019-03-04T09:22:28.688Z,98798.59
2019-03-04T09:25:01.020Z,98810.42
2019-03-04T09:27:34.127Z,98822.63
2019-03-04T09:30:07.228Z,98832.07
2019-03-04T09:32:38.994Z,98807.82
2019-03-04T09:35:12.365Z,98819.08
2019-03-04T09:37:44.160Z,98825.05
2019-03-04T09:40:17.466Z,98812.53
2019-03-04T09:42:50.822Z,98824.97
2019-03-04T09:45:22.834Z,98847.34
2019-03-04T09:47:55.206Z,98835.50
2019-03-04T09:50:26.951Z,98817.18
2019-03-04T09:52:58.652Z,98818.50
2019-03-04T09:55:31.004Z,98819.70
2019-03-04T09:58:02.787Z,98835.16
2019-03-04T10:01:23.184Z,98832.44
2019-03-04T10:05:02.561Z,98830.78
2019-03-04T10:07:56.712Z,98817.64
2019-03-04T10:11:21.263Z,98802.34
2019-03-04T10:14:41.662Z,98818.52
2019-03-04T10:17:39.315Z,98819.02
2019-03-04T10:20:51.631Z,98827.51
2019-03-04T10:24:19.941Z,98817.81
2019-03-04T10:27:31.951Z,98807.02
2019-03-04T10:30:58.959Z,98801.86
2019-03-04T10:34:51.952Z,98843.72
2019-03-04T10:38:33.101Z,98855.76
2019-03-04T10:41:48.523Z,98856.63
2019-03-04T10:45:24.278Z,98841.95
2019-03-04T10:47:56.301Z,98843.58
2019-03-04T10:50:29.024Z,98843.67
2019-03-04T10:53:00.789Z,98860.02
2019-03-04T10:55:41.612Z,98861.06
2019-03-04T10:58:07.707Z,98872.77
2019-03-04T11:00:40.502Z,98849.48
2019-03-04T11:03:12.420Z,98860.63
2019-03-04T11:05:45.987Z,98847.45
2019-03-04T11:08:18.146Z,98850.03
2019-03-04T11:10:50.293Z,98842.84
2019-03-04T11:13:22.481Z,98845.47
2019-03-04T11:15:54.482Z,98844.16
2019-03-04T11:18:26.371Z,98829.48
2019-03-04T11:20:58.784Z,98817.97
2019-03-04T11:23:31.119Z,98814.56
2019-03-04T11:26:03.063Z,98802.30
2019-03-04T11:28:35.300Z,98795.16
2019-03-04T11:31:07.414Z,98798.30
2019-03-04T11:33:39.296Z,98790.92
2019-03-04T11:36:11.727Z,98795.73
2019-03-04T11:38:47.154Z,98792.66
2019-03-04T11:41:21.776Z,98777.86
2019-03-04T11:43:53.472Z,98768.78
2019-03-04T11:46:26.136Z,98767.26
2019-03-04T11:48:58.424Z,98767.73
2019-03-04T11:51:30.082Z,98767.13
2019-03-04T11:54:04.180Z,98764.28
2019-03-04T11:56:35.833Z,98757.23
2019-03-04T11:59:07.571Z,98757.70
2019-03-04T12:01:46.037Z,98742.77
2019-03-04T12:04:19.530Z,98744.68
2019-03-04T12:06:52.828Z,98739.34
2019-03-04T12:09:24.588Z,98728.35
2019-03-04T12:11:57.379Z,98731.11
2019-03-04T12:14:29.454Z,98721.79
2019-03-04T12:17:01.265Z,98722.02
2019-03-04T12:19:33.581Z,98733.03
2019-03-04T12:22:06.189Z,98733.63
2019-03-04T12:24:40.447Z,98722.89
2019-03-04T12:27:13.556Z,98720.27
2019-03-04T12:29:45.980Z,98712.12
2019-03-04T12:32:29.032Z,98710.08
2019-03-04T12:35:01.208Z,98705.17
2019-03-04T12:37:34.530Z,98686.27
2019-03-04T12:40:09.293Z,98691.55
2019-03-04T12:42:41.265Z,98677.94
2019-03-04T12:45:15.488Z,98693.48
2019-03-04T12:47:49.257Z,98691.11
2019-03-04T12:50:24.823Z,98676.98
2019-03-04T12:52:57.554Z,98681.78
2019-03-04T12:55:31.242Z,98673.15
2019-03-04T12:58:03.605Z,98662.36
2019-03-04T13:00:36.527Z,98657.34
2019-03-04T13:03:17.318Z,98645.13
2019-03-04T13:05:49.722Z,98658.39
2019-03-04T13:08:21.758Z,98643.53
2019-03-04T13:10:53.990Z,98639.95
2019-03-04T13:13:26.664Z,98628.83
2019-03-04T13:16:00.595Z,98631.36
2019-03-04T13:18:32.716Z,98629.56
2019-03-04T13:21:04.467Z,98644.39
2019-03-04T13:23:36.114Z,98654.34
2019-03-04T13:26:09.623Z,98680.20
2019-03-04T13:28:42.421Z,98690.37
2019-03-04T13:31:14.256Z,98719.83
2019-03-04T13:33:46.005Z,98713.60
2019-03-04T13:36:19.440Z,98721.64
2019-03-04T13:38:51.196Z,98707.81
2019-03-04T13:41:22.905Z,98712.48
2019-03-04T13:43:55.444Z,98697.63
2019-03-04T13:46:27.084Z,98697.87
2019-03-04T13:48:59.125Z,98692.98
2019-03-04T13:51:31.080Z,98693.94
2019-03-04T13:54:03.046Z,98696.69
2019-03-04T13:56:35.322Z,98693.73
2019-03-04T13:59:07.941Z,98681.05
2019-03-04T14:01:39.607Z,98666.67
2019-03-04T14:04:11.639Z,98673.25
2019-03-04T14:06:43.391Z,98672.65
2019-03-04T14:09:19.418Z,98669.75
2019-03-04T14:11:52.153Z,98661.73
2019-03-04T14:14:26.075Z,98680.52
2019-03-04T14:16:57.854Z,98651.20
2019-03-04T14:19:29.775Z,98652.98
2019-03-04T14:22:01.813Z,98664.59
2019-03-04T14:24:34.510Z,98669.87
2019-03-04T14:27:06.261Z,98683.05
2019-03-04T14:29:38.868Z,98687.84
2019-03-04T14:32:10.555Z,98710.23
2019-03-04T14:34:42.252Z,98688.56
2019-03-04T14:37:14.227Z,98673.22
2019-03-04T14:39:45.975Z,98687.45
2019-03-04T14:42:17.707Z,98682.05
2019-03-04T14:44:50.035Z,98698.08
2019-03-04T14:47:22.233Z,98699.30
2019-03-04T14:49:54.056Z,98711.91
2019-03-04T14:52:25.760Z,98758.14
2019-03-04T14:54:57.651Z,98832.30
2019-03-04T14:57:29.327Z,98874.83
2019-03-04T15:00:01.653Z,98875.48
2019-03-04T15:02:33.324Z,98864.94
2019-03-04T15:05:05.618Z,98891.27
2019-03-04T15:07:37.325Z,98887.91
2019-03-04T15:10:09.225Z,98904.13
2019-03-04T15:12:42.129Z,98893.79
2019-03-04T15:15:15.003Z,98887.36
2019-03-04T15:17:46.909Z,98905.06
2019-03-04T15:20:20.853Z,98922.55
2019-03-04T15:22:52.928Z,98924.35
2019-03-04T15:25:28.979Z,98930.23
2019-03-04T15:28:15.742Z,98950.54
2019-03-04T15:30:49.771Z,98946.14
2019-03-04T15:33:21.579Z,98946.33
2019-03-04T15:35:53.267Z,98946.63
2019-03-04T15:38:25.215Z,98956.90
2019-03-04T15:40:57.077Z,98963.28
2019-03-04T15:43:30.470Z,98959.53
2019-03-04T15:46:03.145Z,98967.02
2019-03-04T15:48:35.451Z,98973.20
2019-03-04T15:51:07.274Z,98970.86
2019-03-04T15:53:39.131Z,98974.88
2019-03-04T15:56:11.319Z,98980.38
2019-03-04T15:58:43.079Z,98982.45
2019-03-04T16:01:15.595Z,98988.89
2019-03-04T16:03:47.462Z,98977.85
2019-03-04T16:06:19.146Z,98986.09
2019-03-04T16:08:51.013Z,98999.20
2019-03-04T16:11:23.111Z,98997.60
2019-03-04T16:13:56.182Z,99017.17
2019-03-04T16:16:28.055Z,99020.55
2019-03-04T16:18:59.880Z,99037.70
2019-03-04T16:21:31.532Z,99054.27
2019-03-04T16:24:03.257Z,99053.42
2019-03-04T16:26:35.514Z,99061.19
2019-03-04T16:29:07.524Z,99069.61
2019-03-04T16:31:39.215Z,99076.22
2019-03-04T16:34:11.219Z,99087.73
2019-03-04T16:36:42.909Z,99091.94
2019-03-04T16:39:14.571Z,99093.41
2019-03-04T16:41:46.314Z,99106.31
2019-03-04T16:44:18.361Z,99113.98
2019-03-04T16:46:50.489Z,99115.45
2019-03-04T16:49:22.468Z,99119.57
2019-03-04T16:51:54.124Z,99124.04
2019-03-04T16:54:26.102Z,99136.67
2019-03-04T16:56:57.815Z,99147.15
2019-03-04T16:59:29.487Z,99155.19
2019-03-04T17:02:01.370Z,99163.67
2019-03-04T17:04:33.487Z,99169.02
2019-03-04T17:07:05.887Z,99176.09
2019-03-04T17:09:37.769Z,99189.19
2019-03-04T17:12:10.476Z,99197.69
2019-03-04T17:14:42.222Z,99201.39
2019-03-04T17:17:15.377Z,99208.77
2019-03-04T17:19:47.403Z,99220.02
2019-03-04T17:22:19.463Z,99228.28
2019-03-04T17:24:51.282Z,99244.38
2019-03-04T17:27:22.992Z,99248.70
2019-03-04T17:29:54.677Z,99252.48
2019-03-04T17:32:26.340Z,99252.34
2019-03-04T17:34:58.140Z,99256.05
2019-03-04T17:37:29.792Z,99263.75
2019-03-04T17:40:01.689Z,99277.85
2019-03-04T17:42:33.522Z,99288.45
2019-03-04T17:45:05.238Z,99297.85
2019-03-04T17:47:37.524Z,99299.01
2019-03-04T17:50:12.593Z,99305.39
2019-03-04T17:52:44.388Z,99326.94
2019-03-04T17:55:17.436Z,99325.70
2019-03-04T17:57:50.719Z,99332.69
2019-03-04T18:00:22.551Z,99334.84
2019-03-04T18:02:54.272Z,99339.16
2019-03-04T18:05:26.343Z,99341.71
2019-03-04T18:07:58.264Z,99346.70
2019-03-04T18:10:30.453Z,99350.47
2019-03-04T18:13:02.608Z,99353.08
2019-03-04T18:15:36.171Z,99365.39
2019-03-04T18:18:07.912Z,99378.78
2019-03-04T18:20:39.651Z,99372.92
2019-03-04T18:23:11.693Z,99384.92
2019-03-04T18:25:51.452Z,99389.08
2019-03-04T18:28:41.181Z,99390.55
2019-03-04T18:31:43.854Z,99392.77
2019-03-04T18:35:25.017Z,99391.07
2019-03-04T18:38:46.681Z,99397.45
2019-03-04T18:41:43.574Z,99390.91
2019-03-04T18:45:18.607Z,99397.22
2019-03-04T18:48:59.759Z,99390.45
2019-03-04T18:51:33.311Z,99396.53
2019-03-04T18:54:15.491Z,99404.05
2019-03-04T18:56:47.611Z,99400.28
2019-03-04T18:59:20.312Z,99399.59
2019-03-04T19:01:52.367Z,99400.11
2019-03-04T19:04:24.096Z,99405.34
2019-03-04T19:06:55.779Z,99399.78
2019-03-04T19:09:27.626Z,99404.65
2019-03-04T19:11:59.336Z,99403.41
2019-03-04T19:14:31.156Z,99402.16
2019-03-04T19:17:02.852Z,99401.25
2019-03-04T19:19:34.616Z,99401.25
2019-03-04T19:22:06.592Z,99410.85
2019-03-04T19:24:38.498Z,99413.47
2019-03-04T19:27:10.216Z,99411.31
2019-03-04T19:29:42.076Z,99417.94
2019-03-04T19:32:13.852Z,99419.70
2019-03-04T19:34:45.551Z,99425.45
2019-03-04T19:37:17.491Z,99430.22
2019-03-04T19:39:49.453Z,99430.28
2019-03-04T19:42:21.227Z,99436.06
2019-03-04T19:44:53.064Z,99438.67
2019-03-04T19:47:25.344Z,99438.73
2019-03-04T19:49:57.133Z,99440.56
2019-03-04T19:52:28.932Z,99436.73
2019-03-04T19:55:00.755Z,99437.55
2019-03-04T19:57:32.681Z,99441.47
2019-03-04T20:00:05.303Z,99433.57
2019-03-04T20:02:37.100Z,99441.41
2019-03-04T20:05:09.135Z,99437.95
2019-03-04T20:07:41.313Z,99444.42
2019-03-04T20:10:13.803Z,99442.20
2019-03-04T20:12:45.651Z,99442.20
2019-03-04T20:15:22.736Z,99443.50
2019-03-04T20:17:56.589Z,99450.44
2019-03-04T20:20:28.460Z,99464.80
2019-03-04T20:23:00.282Z,99467.55
2019-03-04T20:25:32.118Z,99458.09
2019-03-04T20:28:03.911Z,99466.05
2019-03-04T20:30:35.690Z,99468.36
2019-03-04T20:33:07.594Z,99468.42
2019-03-04T20:35:39.550Z,99465.81
2019-03-04T20:38:11.662Z,99475.81
2019-03-04T20:40:43.449Z,99467.91
2019-03-04T20:43:15.395Z,99475.66
2019-03-04T20:45:47.331Z,99480.83
2019-03-04T20:48:19.883Z,99488.14
2019-03-04T20:50:51.697Z,99493.38
2019-03-04T20:53:23.900Z,99504.28
2019-03-04T20:55:55.751Z,99524.34
2019-03-04T20:58:27.703Z,99521.02
2019-03-04T21:00:59.445Z,99521.66
2019-03-04T21:03:35.147Z,99520.65
2019-03-04T21:06:05.642Z,99517.58
2019-03-04T21:08:37.370Z,99527.63
2019-03-04T21:11:09.676Z,99525.98
2019-03-04T21:13:42.003Z,99534.03
2019-03-04T21:16:13.714Z,99548.15
2019-03-04T21:18:45.449Z,99545.20
2019-03-04T21:21:17.529Z,99550.11
2019-03-04T21:23:49.718Z,99555.54
2019-03-04T21:26:28.015Z,99550.97
2019-03-04T21:29:43.931Z,99547.37
2019-03-04T21:33:08.039Z,99558.92
2019-03-04T21:36:37.157Z,99565.55
2019-03-04T21:39:09.753Z,99564.30
2019-03-04T21:42:06.407Z,99576.96
2019-03-04T21:45:25.782Z,99569.07
2019-03-04T21:48:10.099Z,99579.80
2019-03-04T21:51:25.961Z,99580.26
2019-03-04T21:53:57.684Z,99588.94
2019-03-04T21:57:17.226Z,99590.75
2019-03-04T21:59:49.099Z,99593.37
2019-03-04T22:02:59.090Z,99592.97
2019-03-04T22:05:31.116Z,99592.97
2019-03-04T22:08:02.759Z,99593.88
2019-03-04T22:10:34.711Z,99592.46
2019-03-04T22:13:06.769Z,99593.71
2019-03-04T22:15:39.585Z,99598.79
2019-03-04T22:18:13.087Z,99593.12
2019-03-04T22:20:46.515Z,99592.61
2019-03-04T22:23:18.319Z,99594.31
2019-03-04T22:25:49.983Z,99593.77
2019-03-04T22:28:21.716Z,99595.88
2019-03-04T22:30:53.427Z,99604.05
2019-03-04T22:33:27.966Z,99612.34
2019-03-04T22:35:59.791Z,99608.42
2019-03-04T22:39:10.775Z,99613.20
2019-03-04T22:41:42.791Z,99620.54
2019-03-04T22:44:14.499Z,99619.63
2019-03-04T22:46:47.154Z,99619.13
2019-03-04T22:49:19.454Z,99615.16
2019-03-04T22:52:03.916Z,99624.61
2019-03-04T22:54:35.622Z,99616.17
2019-03-04T22:57:07.444Z,99639.62
2019-03-04T22:59:39.096Z,99637.42
2019-03-04T23:02:12.107Z,99639.17
2019-03-04T23:04:54.541Z,99648.46
2019-03-04T23:07:36.210Z,99648.56
2019-03-04T23:10:32.679Z,99656.41
2019-03-04T23:13:46.595Z,99653.48
2019-03-04T23:16:22.659Z,99662.48
2019-03-04T23:18:54.676Z,99658.05
2019-03-04T23:21:26.745Z,99660.13
2019-03-04T23:23:58.564Z,99679.16
2019-03-04T23:26:30.174Z,99662.94
2019-03-04T23:29:01.826Z,99671.23
2019-03-04T23:31:33.491Z,99663.94
2019-03-04T23:34:05.429Z,99673.98
2019-03-04T23:36:37.084Z,99664.79
2019-03-04T23:39:09.934Z,99663.80
2019-03-04T23:41:41.570Z,99662.89
2019-03-04T23:44:13.193Z,99667.06
2019-03-04T23:46:44.814Z,99657.41
2019-03-04T23:49:16.836Z,99666.50
2019-03-04T23:51:48.719Z,99651.19
2019-03-04T23:54:20.430Z,99652.05
2019-03-04T23:56:52.085Z,99651.98
2019-03-04T23:59:23.760Z,99654.09
